Deer Park, WA

7:10 AM PDT on October 23, 2014 (GMT -0700)
800 North Vernon Ave | Change Station
CLOSE
Current Station
Personal Weather Station
Location: Deer Park, WA
Elevation: 2132 ft
Nearby Weather Stations

Elev 2132 ft 47.96 °N, 117.48 °W | Updated 17 seconds ago

Overcast
Overcast
49.8 °F
Feels Like 50 °F
N
0.0
Wind Variable Wind from South
Gusts 0.0 mph

Today
High -- | Low -- °F
--% Chance of Precip.
Yesterday
High -- | Low -- °F
Precip. -- in
7:21 AM 5:46 PM
Waning Crescent, 0% visible
Pressure 29.79 in
Visibility 10.0 miles
Clouds Scattered Clouds 1700 ft
Overcast 6000 ft
Windchill 50 °F
Dew Point 43 °F
Humidity 76%
Rainfall 0.04 in
Snow Depth 1 in
UV 0 out of 12
Pollen .40 out of 12
PM2.5 Good
Flu Activity Sporadic
METAR KDEW 231353Z AUTO 17008KT 10SM -RA SCT017 OVC060 10/09 A2979 RMK AO2 RAB47 SLP088 P0000 T01000089

More Conditions Fewer Conditions

Pressure 29.79 in
Visibility 10.0 miles
Clouds Scattered Clouds 1700 ft
Overcast 6000 ft
Windchill 50 °F
Dew Point 43 °F
Humidity 76%
Rainfall 0.04 in
Snow Depth 1 in
UV 0 out of 12
Pollen .40 out of 12
PM2.5 Good
Flu Activity Sporadic
METAR KDEW 231353Z AUTO 17008KT 10SM -RA SCT017 OVC060 10/09 A2979 RMK AO2 RAB47 SLP088 P0000 T01000089

More Conditions Fewer Conditions

10-Day Weather Forecast

Almanac

Astronomy

Oct. 23, 2014 Rise Set
Actual Time 7:21 AM PDT 5:46 PM PDT
Civil Twilight 6:49 AM PDT 6:18 PM PDT
Nautical Twilight 6:13 AM PDT 6:54 PM PDT
Astronomical Twilight 5:37 AM PDT 7:30 PM PDT
Moon 7:04 AM PDT 5:50 PM PDT
Length of Visible Light 11h 28m
Length of Day
10h 25m
Tomorrow will be 3m 15s shorter.
Waning Crescent, 0% of the Moon is Illuminated
Today
Waning Crescent
Oct 23
New
Oct 30
First Quarter
Nov 6
Full
Nov 14
Last Quarter

Today's Extremes

State Highs State Lows

Community

WunderPhotos

Upload Photos

1,764,256 photos uploaded!

Nearby

Air Quality

  Air Quality AQ Index Pollutant
Yesterday Good
PM10
Current Good
PM2.5
Thursday Good
PM10
Thursday Good
CO
Friday Good
PM10
Friday Good
CO

Snow Depth

Station Depth Elevation
Quartz Peak 1 in 4700 ft
Bunchgrass Meadow 0 in 5000 ft
Moses Mountain 0 in 5300 ft
Sourdough Gulch 0 in 4000 ft
Spruce Springs 1 in 5700 ft

Earthquake Activity

City Distance Mag. Time & Date
No recent earthquake activity has been reported nearby.
Minimum magnitude displayed is 2.5.

Coastal Water Temperatures

Place Temperature
No Stations Reporting

Nearby Weather Stations